Monroe, WI

6:36 PM CST on November 23, 2017 (GMT -0600)
Monroe Municipal

Weather History for KEFT - July, 2013

Change the Weather History Date:

Friday, July 5, 2013

  Actual Average Record
Temperature  
Mean Temperature 74 °F -  
Max Temperature 84 °F 78 °F 100 °F (2012)
Min Temperature 63 °F 39 °F 39 °F (1972)
Cooling Degree Days 8    
Growing Degree Days 24 (Base 50)    
Moisture  
Dew Point 63 °F    
Average Humidity 71    
Maximum Humidity 100    
Minimum Humidity 44    
Precipitation  
Precipitation 0.00 in - - ()
Sea Level Pressure  
Sea Level Pressure 30.05 in    
Wind  
Wind Speed 9 mph (South)    
Max Wind Speed 14 mph    
Max Gust Speed 21 mph    
Visibility 10 miles    
Events      
Averages and records for this station are not official NWS values.
T = Trace of Precipitation, MM = Missing Value Source: NWS Daily Summary

Daily Weather History Graph

Daily Weather History Graph

Search for Another Location

Airport or City:

Trip Planner

Search our weather history database for the weather conditions in past years. The results will help you decide how hot, cold, wet, or windy it might be!

Date:

Astronomy

Jul. 05, 2013 Rise Set
Actual Time 5:26 AM CDT 8:38 PM CDT
Civil Twilight 4:52 AM CDT 9:13 PM CDT
Nautical Twilight 4:07 AM CDT 9:57 PM CDT
Astronomical Twilight 3:13 AM CDT 10:51 PM CDT
Moon 3:27 AM CDT (7/5) 6:32 PM CDT (7/5)
Length of Visible Light 16h 21m
Length of Day
15h 11m
Waning Crescent, 6% of the Moon is Illuminated
Jul 5
Waning Crescent
Jul 8
New
Jul 15
First Quarter
Jul 22
Full
Jul 29
Last Quarter

Hourly Weather History & Observations

Time (CDT) Temp. Heat Index Dew Point Humidity Pressure Visibility Wind Dir Wind Speed Gust Speed Precip Events Conditions
12:15 AM 68.4 °F - 67.1 °F 96% 30.05 in 10.0 mi SSE 8.1 mph - N/A   Clear
12:35 AM 68.2 °F - 67.3 °F 97% 30.05 in 10.0 mi South 8.1 mph - N/A   Clear
12:55 AM 67.1 °F - 66.7 °F 99% 30.05 in 10.0 mi South 9.2 mph - N/A   Scattered Clouds
1:15 AM 67.1 °F - 66.7 °F 99% 30.05 in 10.0 mi South 9.2 mph - N/A   Scattered Clouds
1:35 AM 66.4 °F - 66.4 °F 100% 30.05 in 10.0 mi South 8.1 mph - N/A   Scattered Clouds
1:55 AM 65.7 °F - 65.7 °F 100% 30.05 in 10.0 mi South 9.2 mph - N/A   Clear
2:15 AM 65.5 °F - 65.5 °F 100% 30.05 in 10.0 mi South 10.4 mph - N/A   Clear
2:35 AM 65.1 °F - 65.1 °F 100% 30.05 in 10.0 mi South 10.4 mph - N/A   Clear
2:55 AM 64.8 °F - 64.8 °F 100% 30.05 in 10.0 mi South 9.2 mph - N/A   Clear
3:15 AM 64.4 °F - 64.4 °F 100% 30.05 in 10.0 mi South 9.2 mph - N/A   Scattered Clouds
3:35 AM 64.4 °F - 64.4 °F 100% 30.05 in 10.0 mi South 9.2 mph - N/A   Scattered Clouds
3:55 AM 64.4 °F - 64.4 °F 100% 30.04 in 10.0 mi South 9.2 mph - N/A   Mostly Cloudy
4:15 AM 64.0 °F - 63.7 °F 99% 30.05 in 10.0 mi SSW 9.2 mph - N/A   Mostly Cloudy
4:35 AM 64.4 °F - 63.5 °F 97% 30.05 in 10.0 mi South 9.2 mph - N/A   Scattered Clouds
4:55 AM 64.4 °F - 63.5 °F 97% 30.05 in 10.0 mi SSW 9.2 mph - N/A   Clear
5:15 AM 64.0 °F - 63.5 °F 98% 30.05 in 10.0 mi SSW 9.2 mph - N/A   Clear
5:35 AM 63.7 °F - 63.5 °F 99% 30.05 in 10.0 mi South 8.1 mph - N/A   Clear
5:55 AM 63.5 °F - 63.3 °F 99% 30.06 in 10.0 mi South 8.1 mph - N/A   Clear
6:15 AM 64.0 °F - 63.5 °F 98% 30.06 in 10.0 mi SSW 9.2 mph - N/A   Clear
6:35 AM 64.9 °F - 64.0 °F 97% 30.07 in 10.0 mi South 9.2 mph - N/A   Clear
6:55 AM 65.5 °F - 64.4 °F 96% 30.07 in 10.0 mi South 9.2 mph - N/A   Clear
7:15 AM 66.4 °F - 64.9 °F 95% 30.07 in 10.0 mi South 10.4 mph - N/A   Clear
7:35 AM 67.8 °F - 65.7 °F 93% 30.07 in 10.0 mi South 10.4 mph - N/A   Clear
7:55 AM 68.9 °F - 66.2 °F 91% 30.08 in 10.0 mi SSW 9.2 mph - N/A   Clear
8:15 AM 69.8 °F - 65.5 °F 86% 30.08 in 10.0 mi SSW 8.1 mph - N/A   Clear
8:35 AM 71.6 °F - 61.3 °F 70% 30.08 in 10.0 mi SSW 10.4 mph - N/A   Clear
8:55 AM 73.0 °F - 61.9 °F 68% 30.08 in 10.0 mi SSW 10.4 mph - N/A   Clear
9:15 AM 74.7 °F - 62.1 °F 65% 30.08 in 10.0 mi SSW 12.7 mph - N/A   Clear
9:35 AM 75.6 °F - 62.6 °F 64% 30.08 in 10.0 mi SSW 9.2 mph - N/A   Clear
9:55 AM 76.6 °F - 62.2 °F 61% 30.08 in 10.0 mi SSW 9.2 mph - N/A   Clear
10:15 AM 77.9 °F - 62.6 °F 59% 30.07 in 10.0 mi SSW 10.4 mph - N/A   Clear
10:35 AM 78.3 °F - 61.9 °F 57% 30.07 in 10.0 mi SSW 8.1 mph - N/A   Clear
10:55 AM 79.3 °F - 62.2 °F 56% 30.07 in 10.0 mi SSW 11.5 mph - N/A   Clear
11:15 AM 79.7 °F - 62.8 °F 56% 30.07 in 10.0 mi SSW 9.2 mph - N/A   Clear
11:35 AM 80.2 °F 81.3 °F 61.9 °F 53% 30.07 in 10.0 mi SW 9.2 mph - N/A   Clear
11:55 AM 81.5 °F 82.7 °F 62.8 °F 53% 30.07 in 10.0 mi SSW 6.9 mph - N/A   Clear
12:15 PM 81.5 °F 82.5 °F 62.4 °F 52% 30.07 in 10.0 mi South 10.4 mph - N/A   Scattered Clouds
12:35 PM 81.0 °F 81.9 °F 62.1 °F 52% 30.06 in 10.0 mi SSW 9.2 mph - N/A   Scattered Clouds
12:55 PM 81.5 °F 82.0 °F 60.3 °F 48% 30.06 in 10.0 mi South 13.8 mph - N/A   Scattered Clouds
1:15 PM 82.8 °F 83.6 °F 62.4 °F 50% 30.06 in 10.0 mi South 12.7 mph 16.1 mph N/A   Scattered Clouds
1:35 PM 82.8 °F 83.4 °F 61.7 °F 49% 30.05 in 10.0 mi South 12.7 mph 18.4 mph N/A   Scattered Clouds
1:55 PM 82.9 °F 83.5 °F 61.3 °F 48% 30.05 in 10.0 mi South 13.8 mph 20.7 mph N/A   Scattered Clouds
2:15 PM 82.9 °F 83.3 °F 60.6 °F 47% 30.05 in 10.0 mi South 10.4 mph 18.4 mph N/A   Scattered Clouds
2:35 PM 83.1 °F 83.5 °F 61.0 °F 47% 30.04 in 10.0 mi South 12.7 mph 19.6 mph N/A   Mostly Cloudy
2:55 PM 82.0 °F 82.5 °F 60.4 °F 48% 30.04 in 10.0 mi South 13.8 mph 19.6 mph N/A   Mostly Cloudy
3:15 PM 82.4 °F 82.9 °F 61.0 °F 48% 30.04 in 10.0 mi South 8.1 mph - N/A   Scattered Clouds
3:35 PM 84.2 °F 84.2 °F 60.1 °F 44% 30.03 in 10.0 mi South 11.5 mph 16.1 mph N/A   Mostly Cloudy
3:55 PM 83.7 °F 83.9 °F 61.0 °F 46% 30.03 in 10.0 mi South 11.5 mph 17.3 mph N/A   Scattered Clouds
4:15 PM 83.7 °F 84.3 °F 61.9 °F 48% 30.03 in 10.0 mi South 9.2 mph - N/A   Scattered Clouds
4:35 PM 83.5 °F 84.1 °F 61.7 °F 48% 30.02 in 10.0 mi South 12.7 mph 17.3 mph N/A   Scattered Clouds
4:55 PM 83.5 °F 83.6 °F 60.1 °F 45% 30.02 in 10.0 mi SSW 9.2 mph - N/A   Scattered Clouds
5:15 PM 83.7 °F 84.1 °F 61.5 °F 47% 30.02 in 10.0 mi SSW 11.5 mph - N/A   Scattered Clouds
5:35 PM 83.3 °F 83.7 °F 61.3 °F 47% 30.02 in 10.0 mi South 12.7 mph - N/A   Scattered Clouds
5:55 PM 82.8 °F 83.4 °F 61.5 °F 49% 30.01 in 10.0 mi South 11.5 mph - N/A   Scattered Clouds
6:15 PM 82.4 °F 83.2 °F 62.2 °F 50% 30.01 in 10.0 mi South 13.8 mph - N/A   Scattered Clouds
6:35 PM 81.5 °F 82.4 °F 61.9 °F 51% 30.01 in 10.0 mi South 11.5 mph - N/A   Scattered Clouds
6:55 PM 80.8 °F 81.6 °F 61.3 °F 51% 30.02 in 10.0 mi South 10.4 mph - N/A   Scattered Clouds
7:15 PM 79.9 °F - 61.9 °F 54% 30.01 in 10.0 mi South 8.1 mph - N/A   Clear
7:35 PM 79.0 °F - 62.2 °F 56% 30.01 in 10.0 mi South 8.1 mph - N/A   Clear
7:55 PM 77.5 °F - 62.1 °F 59% 30.01 in 10.0 mi South 6.9 mph - N/A   Clear
8:15 PM 76.5 °F - 62.1 °F 61% 30.01 in 10.0 mi South 6.9 mph - N/A   Clear
8:35 PM 75.6 °F - 62.1 °F 63% 30.01 in 10.0 mi South 6.9 mph - N/A   Clear
8:55 PM 74.3 °F - 62.1 °F 65% 30.02 in 10.0 mi South 6.9 mph - N/A   Clear
9:15 PM 73.8 °F - 62.1 °F 67% 30.02 in 10.0 mi South 8.1 mph - N/A   Clear
9:35 PM 73.0 °F - 61.7 °F 67% 30.03 in 10.0 mi South 6.9 mph - N/A   Clear
9:55 PM 72.5 °F - 61.3 °F 68% 30.04 in 10.0 mi South 8.1 mph - N/A   Clear
10:15 PM 70.9 °F - 62.1 °F 74% 30.04 in 10.0 mi South 8.1 mph - N/A   Clear
10:35 PM 71.2 °F - 61.7 °F 72% 30.04 in 10.0 mi South 9.2 mph - N/A   Clear
10:55 PM 71.1 °F - 61.0 °F 70% 30.04 in 10.0 mi South 9.2 mph - N/A   Clear
11:15 PM 69.8 °F - 61.3 °F 74% 30.03 in 10.0 mi South 9.2 mph - N/A   Clear
11:35 PM 69.8 °F - 60.8 °F 73% 30.04 in 10.0 mi South 9.2 mph - N/A   Clear
11:55 PM 69.1 °F - 61.0 °F 75% 30.04 in 10.0 mi South 10.4 mph - N/A   Clear